sensor_id;sensor_type;location;lat;lon;timestamp;temperature;humidity
40600;DHT22;26309;50.924;4.754;2023-04-21T00:00:52;8.10;99.90
40600;DHT22;26309;50.924;4.754;2023-04-21T00:03:18;8.10;99.90
40600;DHT22;26309;50.924;4.754;2023-04-21T00:05:47;8.30;99.90
40600;DHT22;26309;50.924;4.754;2023-04-21T00:08:13;8.30;99.90
40600;DHT22;26309;50.924;4.754;2023-04-21T00:10:39;8.40;99.90
40600;DHT22;26309;50.924;4.754;2023-04-21T00:13:05;8.30;99.90
40600;DHT22;26309;50.924;4.754;2023-04-21T00:15:32;8.30;99.90
40600;DHT22;26309;50.924;4.754;2023-04-21T00:17:58;8.40;99.90
40600;DHT22;26309;50.924;4.754;2023-04-21T00:20:24;8.40;99.90
40600;DHT22;26309;50.924;4.754;2023-04-21T00:22:55;8.40;99.90
40600;DHT22;26309;50.924;4.754;2023-04-21T00:25:21;8.40;99.90
40600;DHT22;26309;50.924;4.754;2023-04-21T00:27:47;8.50;99.90
40600;DHT22;26309;50.924;4.754;2023-04-21T00:30:13;8.50;99.90
40600;DHT22;26309;50.924;4.754;2023-04-21T00:32:39;8.50;99.90
40600;DHT22;26309;50.924;4.754;2023-04-21T00:35:05;8.60;99.90
40600;DHT22;26309;50.924;4.754;2023-04-21T00:37:31;8.70;99.90
40600;DHT22;26309;50.924;4.754;2023-04-21T00:39:57;8.70;99.90
40600;DHT22;26309;50.924;4.754;2023-04-21T00:42:24;8.70;99.90
40600;DHT22;26309;50.924;4.754;2023-04-21T00:44:50;8.70;99.90
40600;DHT22;26309;50.924;4.754;2023-04-21T00:47:17;8.60;99.90
40600;DHT22;26309;50.924;4.754;2023-04-21T00:49:43;8.50;99.90
40600;DHT22;26309;50.924;4.754;2023-04-21T00:52:10;8.40;99.90
40600;DHT22;26309;50.924;4.754;2023-04-21T00:54:37;8.40;99.90
40600;DHT22;26309;50.924;4.754;2023-04-21T00:57:10;8.50;99.90
40600;DHT22;26309;50.924;4.754;2023-04-21T00:59:36;8.50;99.90
40600;DHT22;26309;50.924;4.754;2023-04-21T01:02:03;8.40;99.90
40600;DHT22;26309;50.924;4.754;2023-04-21T01:04:29;8.40;99.90
40600;DHT22;26309;50.924;4.754;2023-04-21T01:07:00;8.40;99.90
40600;DHT22;26309;50.924;4.754;2023-04-21T01:09:26;8.40;99.90
40600;DHT22;26309;50.924;4.754;2023-04-21T01:12:06;8.50;99.90
40600;DHT22;26309;50.924;4.754;2023-04-21T01:14:33;8.60;99.90
40600;DHT22;26309;50.924;4.754;2023-04-21T01:16:59;8.50;99.90
40600;DHT22;26309;50.924;4.754;2023-04-21T01:19:29;8.40;99.90
40600;DHT22;26309;50.924;4.754;2023-04-21T01:21:55;8.40;99.90
40600;DHT22;26309;50.924;4.754;2023-04-21T01:24:35;8.50;99.90
40600;DHT22;26309;50.924;4.754;2023-04-21T01:27:01;8.40;99.90
40600;DHT22;26309;50.924;4.754;2023-04-21T01:29:27;8.40;99.90
40600;DHT22;26309;50.924;4.754;2023-04-21T01:31:53;8.50;99.90
40600;DHT22;26309;50.924;4.754;2023-04-21T01:34:18;8.40;99.90
40600;DHT22;26309;50.924;4.754;2023-04-21T01:36:44;8.40;99.90
40600;DHT22;26309;50.924;4.754;2023-04-21T01:39:10;8.30;99.90
40600;DHT22;26309;50.924;4.754;2023-04-21T01:41:36;8.40;99.90
40600;DHT22;26309;50.924;4.754;2023-04-21T01:44:02;8.50;99.90
40600;DHT22;26309;50.924;4.754;2023-04-21T01:46:27;8.50;99.90
40600;DHT22;26309;50.924;4.754;2023-04-21T01:48:53;8.40;99.90
40600;DHT22;26309;50.924;4.754;2023-04-21T01:51:19;8.40;99.90
40600;DHT22;26309;50.924;4.754;2023-04-21T01:53:45;8.40;99.90
40600;DHT22;26309;50.924;4.754;2023-04-21T01:56:13;8.40;99.90
40600;DHT22;26309;50.924;4.754;2023-04-21T01:58:39;8.50;99.90
40600;DHT22;26309;50.924;4.754;2023-04-21T02:01:05;8.50;99.90
40600;DHT22;26309;50.924;4.754;2023-04-21T02:03:30;8.60;99.90
40600;DHT22;26309;50.924;4.754;2023-04-21T02:05:56;8.60;99.90
40600;DHT22;26309;50.924;4.754;2023-04-21T02:08:22;8.60;99.90
40600;DHT22;26309;50.924;4.754;2023-04-21T02:10:48;8.60;99.90
40600;DHT22;26309;50.924;4.754;2023-04-21T02:13:13;8.60;99.90
40600;DHT22;26309;50.924;4.754;2023-04-21T02:15:40;8.60;99.90
40600;DHT22;26309;50.924;4.754;2023-04-21T02:18:06;8.50;99.90
40600;DHT22;26309;50.924;4.754;2023-04-21T02:20:32;8.50;99.90
40600;DHT22;26309;50.924;4.754;2023-04-21T02:22:58;8.50;99.90
40600;DHT22;26309;50.924;4.754;2023-04-21T02:25:24;8.40;99.90
40600;DHT22;26309;50.924;4.754;2023-04-21T02:27:50;8.40;99.90
40600;DHT22;26309;50.924;4.754;2023-04-21T02:30:15;8.30;99.90
40600;DHT22;26309;50.924;4.754;2023-04-21T02:32:41;8.40;99.90
40600;DHT22;26309;50.924;4.754;2023-04-21T02:35:08;8.30;99.90
40600;DHT22;26309;50.924;4.754;2023-04-21T02:37:34;8.30;99.90
40600;DHT22;26309;50.924;4.754;2023-04-21T02:40:00;8.40;99.90
40600;DHT22;26309;50.924;4.754;2023-04-21T02:42:26;8.40;99.90
40600;DHT22;26309;50.924;4.754;2023-04-21T02:44:51;8.50;99.90
40600;DHT22;26309;50.924;4.754;2023-04-21T02:47:17;8.50;99.90
40600;DHT22;26309;50.924;4.754;2023-04-21T02:49:43;8.50;99.90
40600;DHT22;26309;50.924;4.754;2023-04-21T02:52:09;8.60;99.90
40600;DHT22;26309;50.924;4.754;2023-04-21T02:54:35;8.60;99.90
40600;DHT22;26309;50.924;4.754;2023-04-21T02:57:01;8.60;99.90
40600;DHT22;26309;50.924;4.754;2023-04-21T02:59:27;8.70;99.90
40600;DHT22;26309;50.924;4.754;2023-04-21T03:01:53;8.70;99.90
40600;DHT22;26309;50.924;4.754;2023-04-21T03:04:19;8.60;99.90
40600;DHT22;26309;50.924;4.754;2023-04-21T03:06:45;8.60;99.90
40600;DHT22;26309;50.924;4.754;2023-04-21T03:09:11;8.50;99.90
40600;DHT22;26309;50.924;4.754;2023-04-21T03:11:37;8.50;99.90
40600;DHT22;26309;50.924;4.754;2023-04-21T03:14:02;8.50;99.90
40600;DHT22;26309;50.924;4.754;2023-04-21T03:16:28;8.50;99.90
40600;DHT22;26309;50.924;4.754;2023-04-21T03:18:54;8.40;99.90
40600;DHT22;26309;50.924;4.754;2023-04-21T03:21:20;8.50;99.90
40600;DHT22;26309;50.924;4.754;2023-04-21T03:23:46;8.50;99.90
40600;DHT22;26309;50.924;4.754;2023-04-21T03:26:12;8.50;99.90
40600;DHT22;26309;50.924;4.754;2023-04-21T03:28:37;8.60;99.90
40600;DHT22;26309;50.924;4.754;2023-04-21T03:31:03;8.50;99.90
40600;DHT22;26309;50.924;4.754;2023-04-21T03:33:29;8.50;99.90
40600;DHT22;26309;50.924;4.754;2023-04-21T03:35:55;8.40;99.90
40600;DHT22;26309;50.924;4.754;2023-04-21T03:38:21;8.50;99.90
40600;DHT22;26309;50.924;4.754;2023-04-21T03:43:37;8.50;99.90
40600;DHT22;26309;50.924;4.754;2023-04-21T03:46:03;8.40;99.90
40600;DHT22;26309;50.924;4.754;2023-04-21T03:48:29;8.40;99.90
40600;DHT22;26309;50.924;4.754;2023-04-21T03:50:56;8.40;99.90
40600;DHT22;26309;50.924;4.754;2023-04-21T03:53:22;8.30;99.90
40600;DHT22;26309;50.924;4.754;2023-04-21T03:55:51;8.20;99.90
40600;DHT22;26309;50.924;4.754;2023-04-21T03:58:17;8.10;99.90
40600;DHT22;26309;50.924;4.754;2023-04-21T04:00:43;8.10;99.90
40600;DHT22;26309;50.924;4.754;2023-04-21T04:03:09;8.10;99.90
40600;DHT22;26309;50.924;4.754;2023-04-21T04:05:35;7.90;99.90
40600;DHT22;26309;50.924;4.754;2023-04-21T04:08:01;7.80;99.90
40600;DHT22;26309;50.924;4.754;2023-04-21T04:10:27;7.70;99.90
40600;DHT22;26309;50.924;4.754;2023-04-21T04:12:53;7.70;99.90
40600;DHT22;26309;50.924;4.754;2023-04-21T04:15:19;7.80;99.90
40600;DHT22;26309;50.924;4.754;2023-04-21T04:17:45;7.60;99.90
40600;DHT22;26309;50.924;4.754;2023-04-21T04:20:11;7.60;99.90
40600;DHT22;26309;50.924;4.754;2023-04-21T04:22:37;7.70;99.90
40600;DHT22;26309;50.924;4.754;2023-04-21T04:25:04;7.70;99.90
40600;DHT22;26309;50.924;4.754;2023-04-21T04:27:30;7.60;99.90
40600;DHT22;26309;50.924;4.754;2023-04-21T04:29:56;7.70;99.90
40600;DHT22;26309;50.924;4.754;2023-04-21T04:32:22;7.70;99.90
40600;DHT22;26309;50.924;4.754;2023-04-21T04:34:53;7.60;99.90
40600;DHT22;26309;50.924;4.754;2023-04-21T04:37:21;7.50;99.90
40600;DHT22;26309;50.924;4.754;2023-04-21T04:39:47;7.50;99.90
40600;DHT22;26309;50.924;4.754;2023-04-21T04:42:13;7.40;99.90
40600;DHT22;26309;50.924;4.754;2023-04-21T04:44:39;7.40;99.90
40600;DHT22;26309;50.924;4.754;2023-04-21T04:47:06;7.30;99.90
40600;DHT22;26309;50.924;4.754;2023-04-21T04:49:31;7.40;99.90
40600;DHT22;26309;50.924;4.754;2023-04-21T04:51:57;7.30;99.90
40600;DHT22;26309;50.924;4.754;2023-04-21T04:54:24;7.30;99.90
40600;DHT22;26309;50.924;4.754;2023-04-21T04:56:50;7.30;99.90
40600;DHT22;26309;50.924;4.754;2023-04-21T04:59:16;7.30;99.90
40600;DHT22;26309;50.924;4.754;2023-04-21T05:01:42;7.20;99.90
40600;DHT22;26309;50.924;4.754;2023-04-21T05:04:08;7.30;99.90
40600;DHT22;26309;50.924;4.754;2023-04-21T05:06:33;7.30;99.90
40600;DHT22;26309;50.924;4.754;2023-04-21T05:08:59;7.30;99.90
40600;DHT22;26309;50.924;4.754;2023-04-21T05:11:25;7.30;99.90
40600;DHT22;26309;50.924;4.754;2023-04-21T05:13:51;7.30;99.90
40600;DHT22;26309;50.924;4.754;2023-04-21T05:16:16;7.30;99.90
40600;DHT22;26309;50.924;4.754;2023-04-21T05:18:42;7.40;99.90
40600;DHT22;26309;50.924;4.754;2023-04-21T05:21:08;7.50;99.90
40600;DHT22;26309;50.924;4.754;2023-04-21T05:23:34;7.50;99.90
40600;DHT22;26309;50.924;4.754;2023-04-21T05:26:00;7.40;99.90
40600;DHT22;26309;50.924;4.754;2023-04-21T05:28:25;7.50;99.90
40600;DHT22;26309;50.924;4.754;2023-04-21T05:30:54;7.50;99.90
40600;DHT22;26309;50.924;4.754;2023-04-21T05:33:20;7.60;99.90
40600;DHT22;26309;50.924;4.754;2023-04-21T05:35:46;7.80;99.90
40600;DHT22;26309;50.924;4.754;2023-04-21T05:38:12;7.90;99.90
40600;DHT22;26309;50.924;4.754;2023-04-21T05:40:38;8.00;99.90
40600;DHT22;26309;50.924;4.754;2023-04-21T05:43:07;8.10;99.90
40600;DHT22;26309;50.924;4.754;2023-04-21T05:45:32;8.20;99.90
40600;DHT22;26309;50.924;4.754;2023-04-21T05:47:58;8.30;99.90
40600;DHT22;26309;50.924;4.754;2023-04-21T05:50:24;8.40;99.90
40600;DHT22;26309;50.924;4.754;2023-04-21T05:52:53;8.50;99.90
40600;DHT22;26309;50.924;4.754;2023-04-21T05:55:19;8.90;99.90
40600;DHT22;26309;50.924;4.754;2023-04-21T05:57:45;9.40;99.90
40600;DHT22;26309;50.924;4.754;2023-04-21T06:00:11;9.50;99.90
40600;DHT22;26309;50.924;4.754;2023-04-21T06:02:37;9.70;99.90
40600;DHT22;26309;50.924;4.754;2023-04-21T06:05:03;9.80;99.90
40600;DHT22;26309;50.924;4.754;2023-04-21T06:07:28;10.00;99.90
40600;DHT22;26309;50.924;4.754;2023-04-21T06:09:54;10.10;99.90
40600;DHT22;26309;50.924;4.754;2023-04-21T06:12:22;10.00;99.90
40600;DHT22;26309;50.924;4.754;2023-04-21T06:14:48;10.10;99.90
40600;DHT22;26309;50.924;4.754;2023-04-21T06:17:17;10.20;99.90
40600;DHT22;26309;50.924;4.754;2023-04-21T06:19:43;10.40;99.90
40600;DHT22;26309;50.924;4.754;2023-04-21T06:22:09;10.40;99.90
40600;DHT22;26309;50.924;4.754;2023-04-21T06:24:35;10.50;99.90
40600;DHT22;26309;50.924;4.754;2023-04-21T06:27:01;10.70;99.90
40600;DHT22;26309;50.924;4.754;2023-04-21T06:29:26;10.70;99.90
40600;DHT22;26309;50.924;4.754;2023-04-21T06:31:52;10.80;99.90
40600;DHT22;26309;50.924;4.754;2023-04-21T06:34:18;10.70;99.90
40600;DHT22;26309;50.924;4.754;2023-04-21T06:36:45;10.60;99.90
40600;DHT22;26309;50.924;4.754;2023-04-21T06:39:11;10.70;99.90
40600;DHT22;26309;50.924;4.754;2023-04-21T06:41:37;10.70;99.90
40600;DHT22;26309;50.924;4.754;2023-04-21T06:44:06;10.80;99.90
40600;DHT22;26309;50.924;4.754;2023-04-21T06:46:32;10.90;99.90
40600;DHT22;26309;50.924;4.754;2023-04-21T06:48:57;10.80;99.90
40600;DHT22;26309;50.924;4.754;2023-04-21T06:51:23;11.00;99.90
40600;DHT22;26309;50.924;4.754;2023-04-21T06:53:49;11.10;99.90
40600;DHT22;26309;50.924;4.754;2023-04-21T06:56:15;10.90;99.90
40600;DHT22;26309;50.924;4.754;2023-04-21T06:58:40;10.80;99.90
40600;DHT22;26309;50.924;4.754;2023-04-21T07:01:06;10.70;99.90
40600;DHT22;26309;50.924;4.754;2023-04-21T07:03:32;10.40;99.90
40600;DHT22;26309;50.924;4.754;2023-04-21T07:05:58;10.40;99.90
40600;DHT22;26309;50.924;4.754;2023-04-21T07:08:24;10.60;99.90
40600;DHT22;26309;50.924;4.754;2023-04-21T07:10:50;10.50;99.90
40600;DHT22;26309;50.924;4.754;2023-04-21T07:13:16;10.40;99.90
40600;DHT22;26309;50.924;4.754;2023-04-21T07:15:42;10.40;99.90
40600;DHT22;26309;50.924;4.754;2023-04-21T07:18:08;10.50;99.90
40600;DHT22;26309;50.924;4.754;2023-04-21T07:20:33;10.60;99.90
40600;DHT22;26309;50.924;4.754;2023-04-21T07:22:59;10.50;99.90
40600;DHT22;26309;50.924;4.754;2023-04-21T07:25:26;10.70;99.90
40600;DHT22;26309;50.924;4.754;2023-04-21T07:27:52;11.00;99.90
40600;DHT22;26309;50.924;4.754;2023-04-21T07:30:18;11.20;99.90
40600;DHT22;26309;50.924;4.754;2023-04-21T07:32:44;11.40;99.90
40600;DHT22;26309;50.924;4.754;2023-04-21T07:35:10;11.50;99.90
40600;DHT22;26309;50.924;4.754;2023-04-21T07:37:36;11.70;99.90
40600;DHT22;26309;50.924;4.754;2023-04-21T07:40:02;11.80;99.90
40600;DHT22;26309;50.924;4.754;2023-04-21T07:42:29;11.70;99.90
40600;DHT22;26309;50.924;4.754;2023-04-21T07:44:56;11.90;99.90
40600;DHT22;26309;50.924;4.754;2023-04-21T07:47:22;11.90;99.90
40600;DHT22;26309;50.924;4.754;2023-04-21T07:49:48;11.90;99.90
40600;DHT22;26309;50.924;4.754;2023-04-21T07:52:14;12.00;99.90
40600;DHT22;26309;50.924;4.754;2023-04-21T07:54:39;12.10;99.90
40600;DHT22;26309;50.924;4.754;2023-04-21T07:57:05;12.30;99.90
40600;DHT22;26309;50.924;4.754;2023-04-21T07:59:31;12.50;99.90
40600;DHT22;26309;50.924;4.754;2023-04-21T08:01:57;12.50;99.90
40600;DHT22;26309;50.924;4.754;2023-04-21T08:04:23;12.60;99.90
40600;DHT22;26309;50.924;4.754;2023-04-21T08:06:49;12.70;99.90
40600;DHT22;26309;50.924;4.754;2023-04-21T08:09:15;12.80;99.90
40600;DHT22;26309;50.924;4.754;2023-04-21T08:11:41;12.80;99.90
40600;DHT22;26309;50.924;4.754;2023-04-21T08:14:06;12.50;99.90
40600;DHT22;26309;50.924;4.754;2023-04-21T08:16:34;12.70;99.90
40600;DHT22;26309;50.924;4.754;2023-04-21T08:19:00;13.00;99.90
40600;DHT22;26309;50.924;4.754;2023-04-21T08:21:26;13.30;99.90
40600;DHT22;26309;50.924;4.754;2023-04-21T08:23:52;13.60;99.90
40600;DHT22;26309;50.924;4.754;2023-04-21T08:26:22;13.60;99.90
40600;DHT22;26309;50.924;4.754;2023-04-21T08:28:48;13.70;99.90
40600;DHT22;26309;50.924;4.754;2023-04-21T08:31:15;13.90;99.90
40600;DHT22;26309;50.924;4.754;2023-04-21T08:33:42;14.10;99.90
40600;DHT22;26309;50.924;4.754;2023-04-21T08:36:08;14.10;99.90
40600;DHT22;26309;50.924;4.754;2023-04-21T08:38:34;14.30;99.90
40600;DHT22;26309;50.924;4.754;2023-04-21T08:41:01;14.20;99.90
40600;DHT22;26309;50.924;4.754;2023-04-21T08:43:28;14.20;99.90
40600;DHT22;26309;50.924;4.754;2023-04-21T08:45:54;14.10;99.90
40600;DHT22;26309;50.924;4.754;2023-04-21T08:48:21;14.10;99.90
40600;DHT22;26309;50.924;4.754;2023-04-21T08:50:51;14.00;99.90
40600;DHT22;26309;50.924;4.754;2023-04-21T08:53:19;14.10;99.90
40600;DHT22;26309;50.924;4.754;2023-04-21T08:55:46;14.10;99.90
40600;DHT22;26309;50.924;4.754;2023-04-21T08:58:16;13.90;99.90
40600;DHT22;26309;50.924;4.754;2023-04-21T09:00:42;14.10;99.90
40600;DHT22;26309;50.924;4.754;2023-04-21T09:03:08;14.10;99.90
40600;DHT22;26309;50.924;4.754;2023-04-21T09:05:35;14.10;99.90
40600;DHT22;26309;50.924;4.754;2023-04-21T09:08:12;14.00;99.90
40600;DHT22;26309;50.924;4.754;2023-04-21T09:10:47;13.80;99.90
40600;DHT22;26309;50.924;4.754;2023-04-21T09:13:13;14.10;99.90
40600;DHT22;26309;50.924;4.754;2023-04-21T09:15:44;14.30;99.90
40600;DHT22;26309;50.924;4.754;2023-04-21T09:18:15;14.40;99.90
40600;DHT22;26309;50.924;4.754;2023-04-21T09:20:42;14.60;99.90
40600;DHT22;26309;50.924;4.754;2023-04-21T09:23:09;14.70;99.90
40600;DHT22;26309;50.924;4.754;2023-04-21T09:25:38;14.90;99.90
40600;DHT22;26309;50.924;4.754;2023-04-21T09:28:09;14.90;99.90
40600;DHT22;26309;50.924;4.754;2023-04-21T09:30:37;15.20;99.90
40600;DHT22;26309;50.924;4.754;2023-04-21T09:33:05;15.30;99.90
40600;DHT22;26309;50.924;4.754;2023-04-21T09:35:40;15.30;99.90
40600;DHT22;26309;50.924;4.754;2023-04-21T09:38:11;15.10;99.90
40600;DHT22;26309;50.924;4.754;2023-04-21T09:40:37;14.70;99.90
40600;DHT22;26309;50.924;4.754;2023-04-21T09:43:03;14.70;99.90
40600;DHT22;26309;50.924;4.754;2023-04-21T09:45:29;14.80;99.90
40600;DHT22;26309;50.924;4.754;2023-04-21T09:47:57;14.70;99.90
40600;DHT22;26309;50.924;4.754;2023-04-21T09:50:25;14.90;99.90
40600;DHT22;26309;50.924;4.754;2023-04-21T09:52:53;15.10;99.90
40600;DHT22;26309;50.924;4.754;2023-04-21T09:55:23;15.10;99.90
40600;DHT22;26309;50.924;4.754;2023-04-21T09:57:51;15.00;99.90
40600;DHT22;26309;50.924;4.754;2023-04-21T10:00:20;15.00;99.90
40600;DHT22;26309;50.924;4.754;2023-04-21T10:02:50;15.10;99.90
40600;DHT22;26309;50.924;4.754;2023-04-21T10:05:18;15.30;99.90
40600;DHT22;26309;50.924;4.754;2023-04-21T10:07:45;15.40;99.90
40600;DHT22;26309;50.924;4.754;2023-04-21T10:10:22;15.40;99.90
40600;DHT22;26309;50.924;4.754;2023-04-21T10:12:49;15.30;99.90
40600;DHT22;26309;50.924;4.754;2023-04-21T10:15:38;15.10;99.90
40600;DHT22;26309;50.924;4.754;2023-04-21T10:18:18;15.00;99.90
40600;DHT22;26309;50.924;4.754;2023-04-21T10:21:01;14.90;99.90
40600;DHT22;26309;50.924;4.754;2023-04-21T10:23:36;15.20;99.90
40600;DHT22;26309;50.924;4.754;2023-04-21T10:26:07;15.10;99.90
40600;DHT22;26309;50.924;4.754;2023-04-21T10:42:16;15.70;99.90
40600;DHT22;26309;50.924;4.754;2023-04-21T10:49:57;15.50;99.90
40600;DHT22;26309;50.924;4.754;2023-04-21T10:52:33;15.60;99.90
40600;DHT22;26309;50.924;4.754;2023-04-21T10:57:31;15.60;99.90
40600;DHT22;26309;50.924;4.754;2023-04-21T10:59:58;15.60;99.90
40600;DHT22;26309;50.924;4.754;2023-04-21T11:02:25;15.60;98.80
40600;DHT22;26309;50.924;4.754;2023-04-21T11:04:52;15.80;99.90
40600;DHT22;26309;50.924;4.754;2023-04-21T11:07:23;16.00;99.90
40600;DHT22;26309;50.924;4.754;2023-04-21T11:09:59;16.00;97.90
40600;DHT22;26309;50.924;4.754;2023-04-21T11:12:30;15.70;97.30
40600;DHT22;26309;50.924;4.754;2023-04-21T11:14:56;15.80;99.90
40600;DHT22;26309;50.924;4.754;2023-04-21T11:17:23;16.10;99.10
40600;DHT22;26309;50.924;4.754;2023-04-21T11:19:51;16.00;99.90
40600;DHT22;26309;50.924;4.754;2023-04-21T11:22:18;15.90;99.90
40600;DHT22;26309;50.924;4.754;2023-04-21T11:24:46;16.20;99.90
40600;DHT22;26309;50.924;4.754;2023-04-21T11:27:13;16.30;97.20
40600;DHT22;26309;50.924;4.754;2023-04-21T11:29:40;16.50;96.10
40600;DHT22;26309;50.924;4.754;2023-04-21T11:32:07;16.90;95.60
40600;DHT22;26309;50.924;4.754;2023-04-21T11:34:36;17.00;94.60
40600;DHT22;26309;50.924;4.754;2023-04-21T11:37:02;17.00;95.50
40600;DHT22;26309;50.924;4.754;2023-04-21T11:39:28;16.70;94.30
40600;DHT22;26309;50.924;4.754;2023-04-21T11:41:54;17.00;94.00
40600;DHT22;26309;50.924;4.754;2023-04-21T11:44:41;17.30;93.10
40600;DHT22;26309;50.924;4.754;2023-04-21T11:47:15;17.30;91.80
40600;DHT22;26309;50.924;4.754;2023-04-21T11:49:55;17.20;92.70
40600;DHT22;26309;50.924;4.754;2023-04-21T11:55:01;16.70;93.30
40600;DHT22;26309;50.924;4.754;2023-04-21T11:57:28;16.90;94.20
40600;DHT22;26309;50.924;4.754;2023-04-21T11:59:57;17.00;94.10
40600;DHT22;26309;50.924;4.754;2023-04-21T12:02:29;17.00;95.60
40600;DHT22;26309;50.924;4.754;2023-04-21T12:05:07;17.00;94.20
40600;DHT22;26309;50.924;4.754;2023-04-21T12:07:42;17.10;94.60
40600;DHT22;26309;50.924;4.754;2023-04-21T12:10:13;17.00;94.20
40600;DHT22;26309;50.924;4.754;2023-04-21T12:12:40;17.00;94.60
40600;DHT22;26309;50.924;4.754;2023-04-21T12:15:08;16.60;95.70
40600;DHT22;26309;50.924;4.754;2023-04-21T12:17:48;16.60;94.60
40600;DHT22;26309;50.924;4.754;2023-04-21T12:20:20;16.70;95.90
40600;DHT22;26309;50.924;4.754;2023-04-21T12:22:47;16.60;94.00
40600;DHT22;26309;50.924;4.754;2023-04-21T12:25:14;16.60;94.40
40600;DHT22;26309;50.924;4.754;2023-04-21T12:27:52;16.60;93.50
40600;DHT22;26309;50.924;4.754;2023-04-21T12:30:19;16.50;92.20
40600;DHT22;26309;50.924;4.754;2023-04-21T12:32:45;16.70;90.80
40600;DHT22;26309;50.924;4.754;2023-04-21T12:35:12;16.90;90.30
40600;DHT22;26309;50.924;4.754;2023-04-21T12:37:38;17.20;88.20
40600;DHT22;26309;50.924;4.754;2023-04-21T12:40:05;17.10;85.00
40600;DHT22;26309;50.924;4.754;2023-04-21T12:42:32;17.30;90.30
40600;DHT22;26309;50.924;4.754;2023-04-21T12:44:58;17.60;88.60
40600;DHT22;26309;50.924;4.754;2023-04-21T12:47:24;17.60;80.40
40600;DHT22;26309;50.924;4.754;2023-04-21T12:49:50;17.50;78.60
40600;DHT22;26309;50.924;4.754;2023-04-21T12:52:16;17.50;76.90
40600;DHT22;26309;50.924;4.754;2023-04-21T12:54:41;17.50;75.40
40600;DHT22;26309;50.924;4.754;2023-04-21T12:57:09;17.60;77.70
40600;DHT22;26309;50.924;4.754;2023-04-21T12:59:35;17.50;74.10
40600;DHT22;26309;50.924;4.754;2023-04-21T13:02:01;17.60;78.00
40600;DHT22;26309;50.924;4.754;2023-04-21T13:04:26;17.60;78.30
40600;DHT22;26309;50.924;4.754;2023-04-21T13:06:52;17.80;73.00
40600;DHT22;26309;50.924;4.754;2023-04-21T13:09:18;17.80;74.70
40600;DHT22;26309;50.924;4.754;2023-04-21T13:11:44;18.00;74.60
40600;DHT22;26309;50.924;4.754;2023-04-21T13:14:10;18.20;76.10
40600;DHT22;26309;50.924;4.754;2023-04-21T13:16:36;18.40;74.50
40600;DHT22;26309;50.924;4.754;2023-04-21T13:19:03;18.80;73.50
40600;DHT22;26309;50.924;4.754;2023-04-21T13:21:29;18.90;73.20
40600;DHT22;26309;50.924;4.754;2023-04-21T13:23:57;18.70;73.20
40600;DHT22;26309;50.924;4.754;2023-04-21T13:26:23;18.90;74.40
40600;DHT22;26309;50.924;4.754;2023-04-21T13:28:49;19.00;70.60
40600;DHT22;26309;50.924;4.754;2023-04-21T13:31:15;18.60;68.30
40600;DHT22;26309;50.924;4.754;2023-04-21T13:33:41;18.30;69.60
40600;DHT22;26309;50.924;4.754;2023-04-21T13:36:07;18.40;68.40
40600;DHT22;26309;50.924;4.754;2023-04-21T13:38:34;18.50;70.20
40600;DHT22;26309;50.924;4.754;2023-04-21T13:41:00;18.60;69.40
40600;DHT22;26309;50.924;4.754;2023-04-21T13:43:26;18.70;70.70
40600;DHT22;26309;50.924;4.754;2023-04-21T13:45:51;18.60;69.10
40600;DHT22;26309;50.924;4.754;2023-04-21T13:48:19;18.50;68.70
40600;DHT22;26309;50.924;4.754;2023-04-21T13:50:45;18.30;71.20
40600;DHT22;26309;50.924;4.754;2023-04-21T13:53:12;18.30;73.60
40600;DHT22;26309;50.924;4.754;2023-04-21T13:55:42;18.30;70.00
40600;DHT22;26309;50.924;4.754;2023-04-21T13:58:09;18.00;72.40
40600;DHT22;26309;50.924;4.754;2023-04-21T14:00:36;18.30;70.20
40600;DHT22;26309;50.924;4.754;2023-04-21T14:03:02;18.50;71.40
40600;DHT22;26309;50.924;4.754;2023-04-21T14:05:29;18.50;69.50
40600;DHT22;26309;50.924;4.754;2023-04-21T14:07:55;18.10;67.90
40600;DHT22;26309;50.924;4.754;2023-04-21T14:10:27;18.00;71.50
40600;DHT22;26309;50.924;4.754;2023-04-21T14:12:52;18.00;68.30
40600;DHT22;26309;50.924;4.754;2023-04-21T14:15:19;18.00;71.20
40600;DHT22;26309;50.924;4.754;2023-04-21T14:17:44;17.80;69.40
40600;DHT22;26309;50.924;4.754;2023-04-21T14:20:10;17.90;70.70
40600;DHT22;26309;50.924;4.754;2023-04-21T14:22:36;18.20;70.50
40600;DHT22;26309;50.924;4.754;2023-04-21T14:25:02;18.30;69.80
40600;DHT22;26309;50.924;4.754;2023-04-21T14:27:28;18.00;74.50
40600;DHT22;26309;50.924;4.754;2023-04-21T14:29:54;18.30;74.00
40600;DHT22;26309;50.924;4.754;2023-04-21T14:32:24;18.50;74.50
40600;DHT22;26309;50.924;4.754;2023-04-21T14:34:50;18.80;72.20
40600;DHT22;26309;50.924;4.754;2023-04-21T14:37:20;19.00;72.90
40600;DHT22;26309;50.924;4.754;2023-04-21T14:39:46;19.50;69.10
40600;DHT22;26309;50.924;4.754;2023-04-21T14:42:11;19.50;66.70
40600;DHT22;26309;50.924;4.754;2023-04-21T14:44:37;19.60;68.20
40600;DHT22;26309;50.924;4.754;2023-04-21T14:47:03;20.00;71.50
40600;DHT22;26309;50.924;4.754;2023-04-21T14:49:29;19.90;69.70
40600;DHT22;26309;50.924;4.754;2023-04-21T14:51:55;19.90;68.70
40600;DHT22;26309;50.924;4.754;2023-04-21T14:54:21;20.00;70.20
40600;DHT22;26309;50.924;4.754;2023-04-21T14:56:50;20.40;70.00
40600;DHT22;26309;50.924;4.754;2023-04-21T14:59:16;20.70;66.20
40600;DHT22;26309;50.924;4.754;2023-04-21T15:01:42;20.60;68.40
40600;DHT22;26309;50.924;4.754;2023-04-21T15:04:07;20.10;68.70
40600;DHT22;26309;50.924;4.754;2023-04-21T15:06:33;19.90;67.40
40600;DHT22;26309;50.924;4.754;2023-04-21T15:08:59;19.60;66.10
40600;DHT22;26309;50.924;4.754;2023-04-21T15:11:25;19.40;68.00
40600;DHT22;26309;50.924;4.754;2023-04-21T15:13:51;19.50;69.50
40600;DHT22;26309;50.924;4.754;2023-04-21T15:16:17;20.10;71.10
40600;DHT22;26309;50.924;4.754;2023-04-21T15:18:43;20.10;65.40
40600;DHT22;26309;50.924;4.754;2023-04-21T15:21:09;20.00;64.70
40600;DHT22;26309;50.924;4.754;2023-04-21T15:23:35;19.50;65.70
40600;DHT22;26309;50.924;4.754;2023-04-21T15:26:01;19.60;66.00
40600;DHT22;26309;50.924;4.754;2023-04-21T15:28:27;19.20;66.80
40600;DHT22;26309;50.924;4.754;2023-04-21T15:30:52;19.40;67.60
40600;DHT22;26309;50.924;4.754;2023-04-21T15:33:19;19.50;66.90
40600;DHT22;26309;50.924;4.754;2023-04-21T15:35:44;19.60;69.20
40600;DHT22;26309;50.924;4.754;2023-04-21T15:38:13;19.60;67.70
40600;DHT22;26309;50.924;4.754;2023-04-21T15:40:42;19.50;66.90
40600;DHT22;26309;50.924;4.754;2023-04-21T15:43:07;19.50;70.40
40600;DHT22;26309;50.924;4.754;2023-04-21T15:45:33;19.60;68.20
40600;DHT22;26309;50.924;4.754;2023-04-21T15:47:59;19.70;69.80
40600;DHT22;26309;50.924;4.754;2023-04-21T15:50:25;19.50;67.80
40600;DHT22;26309;50.924;4.754;2023-04-21T15:52:51;19.30;71.60
40600;DHT22;26309;50.924;4.754;2023-04-21T15:55:17;18.20;81.40
40600;DHT22;26309;50.924;4.754;2023-04-21T15:57:44;17.70;90.30
40600;DHT22;26309;50.924;4.754;2023-04-21T16:00:10;16.80;91.90
40600;DHT22;26309;50.924;4.754;2023-04-21T16:02:37;16.40;93.60